Time;durP1;ratioP1;P1;durP2;ratioP2;P2;SDS_P1;SDS_P2;PMS_P1;PMS_P2;Temp;Humidity;BMP_temperature;BMP_pressure;BME280_temperature;BME280_humidity;BME280_pressure;Samples;Min_cycle;Max_cycle;Signal;HPM_P1;HPM_P2
2021/03/08 00:00:12;;;;;;;25.07;22.33;;;;;;;;;;5053194;28;20868;-13
2021/03/08 00:02:40;;;;;;;22.80;20.50;;;;;;;;;;5036268;28;20591;-13
2021/03/08 00:05:08;;;;;;;26.30;21.23;;;;;;;;;;5053858;28;20453;-13
2021/03/08 00:07:42;;;;;;;29.37;23.60;;;;;;;;;;5054738;28;20444;-14
2021/03/08 00:10:10;;;;;;;29.27;23.40;;;;;;;;;;5055106;28;20457;-14
2021/03/08 00:12:38;;;;;;;27.50;22.77;;;;;;;;;;5054448;28;20476;-13
2021/03/08 00:15:06;;;;;;;27.30;22.77;;;;;;;;;;5014468;28;20465;-14
2021/03/08 00:17:34;;;;;;;24.63;22.03;;;;;;;;;;5000518;28;20758;-14
2021/03/08 00:20:02;;;;;;;27.10;22.63;;;;;;;;;;5034930;28;20535;-13
2021/03/08 00:22:30;;;;;;;23.03;20.73;;;;;;;;;;5015176;28;20563;-13
2021/03/08 00:25:01;;;;;;;21.07;18.80;;;;;;;;;;5033287;28;20439;-13
2021/03/08 00:27:29;;;;;;;23.23;20.43;;;;;;;;;;5033794;28;20485;-14
2021/03/08 00:29:57;;;;;;;21.50;19.33;;;;;;;;;;5033306;28;20600;-14
2021/03/08 00:32:24;;;;;;;22.30;19.90;;;;;;;;;;5032100;28;20562;-14
2021/03/08 00:34:52;;;;;;;22.90;20.60;;;;;;;;;;5032572;28;20846;-13
2021/03/08 00:37:20;;;;;;;24.03;21.53;;;;;;;;;;5031650;28;20450;-13
2021/03/08 00:39:48;;;;;;;24.07;21.17;;;;;;;;;;5047193;28;20612;-14
2021/03/08 00:42:17;;;;;;;23.77;21.27;;;;;;;;;;5034547;28;20544;-14
2021/03/08 00:44:44;;;;;;;23.10;20.67;;;;;;;;;;5057764;28;20433;-13
2021/03/08 00:47:13;;;;;;;22.63;20.00;;;;;;;;;;5057320;28;20441;-13
2021/03/08 00:49:41;;;;;;;21.60;19.27;;;;;;;;;;5055610;28;20444;-13
2021/03/08 00:52:15;;;;;;;22.93;20.47;;;;;;;;;;5055860;28;20484;-13
2021/03/08 00:54:46;;;;;;;23.17;20.70;;;;;;;;;;5055488;28;20552;-13
2021/03/08 00:57:20;;;;;;;24.40;20.70;;;;;;;;;;5055417;28;20447;-14
2021/03/08 00:59:55;;;;;;;23.57;20.90;;;;;;;;;;5056889;28;20452;-13
2021/03/08 01:02:23;;;;;;;23.23;20.47;;;;;;;;;;5037495;28;20757;-14
2021/03/08 01:04:53;;;;;;;25.20;21.27;;;;;;;;;;5033539;28;20481;-13
2021/03/08 01:07:23;;;;;;;31.20;21.37;;;;;;;;;;5037371;28;20520;-14
2021/03/08 01:09:56;;;;;;;26.73;23.20;;;;;;;;;;5037392;28;20739;-13
2021/03/08 01:12:27;;;;;;;23.10;20.80;;;;;;;;;;5055718;28;20488;-13
2021/03/08 01:14:57;;;;;;;28.30;22.30;;;;;;;;;;5054176;28;20475;-13
2021/03/08 01:17:25;;;;;;;23.80;21.37;;;;;;;;;;5037590;28;20536;-14
2021/03/08 01:19:53;;;;;;;25.10;22.40;;;;;;;;;;5055410;28;20563;-13
2021/03/08 01:22:21;;;;;;;21.63;19.53;;;;;;;;;;5037794;28;20448;-13
2021/03/08 01:24:50;;;;;;;29.50;23.17;;;;;;;;;;5037882;28;20729;-14
2021/03/08 01:27:18;;;;;;;28.40;23.23;;;;;;;;;;5054564;28;20488;-13
2021/03/08 01:29:47;;;;;;;32.33;24.63;;;;;;;;;;5052716;28;20525;-13
2021/03/08 01:32:16;;;;;;;28.20;25.20;;;;;;;;;;5055743;28;20473;-14
2021/03/08 01:34:44;;;;;;;25.40;22.40;;;;;;;;;;5054647;28;20809;-13
2021/03/08 01:37:12;;;;;;;32.27;24.30;;;;;;;;;;5055335;28;20437;-14
2021/03/08 01:39:41;;;;;;;28.50;23.10;;;;;;;;;;5055453;28;21028;-13
2021/03/08 01:42:10;;;;;;;32.97;24.80;;;;;;;;;;5055207;28;20426;-13
2021/03/08 01:44:37;;;;;;;26.80;22.63;;;;;;;;;;5021390;28;20457;-13
2021/03/08 01:47:06;;;;;;;31.97;23.40;;;;;;;;;;5054301;28;20743;-13
2021/03/08 01:49:35;;;;;;;27.53;23.07;;;;;;;;;;5054658;28;20430;-13
2021/03/08 01:52:05;;;;;;;25.23;21.50;;;;;;;;;;5054499;28;20921;-13
2021/03/08 01:54:33;;;;;;;23.43;20.03;;;;;;;;;;5054239;28;20466;-14
2021/03/08 01:57:02;;;;;;;22.90;19.50;;;;;;;;;;5054885;28;20442;-13
2021/03/08 01:59:30;;;;;;;22.83;19.97;;;;;;;;;;5055811;28;20442;-14
2021/03/08 02:01:58;;;;;;;23.17;20.70;;;;;;;;;;5055831;28;20452;-14
2021/03/08 02:04:28;;;;;;;29.40;23.07;;;;;;;;;;5055255;28;20507;-13
2021/03/08 02:06:55;;;;;;;25.03;21.87;;;;;;;;;;5055510;28;20880;-14
2021/03/08 02:09:24;;;;;;;24.00;21.43;;;;;;;;;;5038324;28;20465;-14
2021/03/08 02:11:53;;;;;;;25.03;22.33;;;;;;;;;;5055309;28;20469;-14
2021/03/08 02:14:33;;;;;;;23.90;21.23;;;;;;;;;;5054797;28;20434;-13
2021/03/08 02:17:02;;;;;;;25.17;19.80;;;;;;;;;;5053876;28;20889;-15
2021/03/08 02:19:45;;;;;;;23.87;21.33;;;;;;;;;;5055592;28;20434;-13
2021/03/08 02:22:36;;;;;;;24.40;21.33;;;;;;;;;;5023899;28;20469;-13
2021/03/08 02:25:17;;;;;;;25.13;21.30;;;;;;;;;;5053384;28;20479;-13
2021/03/08 02:28:04;;;;;;;21.77;19.60;;;;;;;;;;5058221;28;20854;-14
2021/03/08 02:30:44;;;;;;;23.37;20.93;;;;;;;;;;5056108;28;20440;-13
2021/03/08 02:33:12;;;;;;;24.73;20.60;;;;;;;;;;5073943;28;20437;-14
2021/03/08 02:35:42;;;;;;;22.47;20.07;;;;;;;;;;5056576;28;20479;-13
2021/03/08 02:38:12;;;;;;;23.17;20.80;;;;;;;;;;5055844;28;20874;-13
2021/03/08 02:40:44;;;;;;;20.50;18.37;;;;;;;;;;5073647;28;20448;-13
2021/03/08 02:43:15;;;;;;;22.60;20.20;;;;;;;;;;5075048;28;20849;-14
2021/03/08 02:45:47;;;;;;;22.03;19.70;;;;;;;;;;5064038;28;20485;-12
2021/03/08 02:48:15;;;;;;;21.67;19.37;;;;;;;;;;5053708;28;20639;-12
2021/03/08 02:50:46;;;;;;;23.60;21.10;;;;;;;;;;5036997;28;20473;-13
2021/03/08 02:53:17;;;;;;;21.63;19.43;;;;;;;;;;5054002;28;20470;-14
2021/03/08 02:55:50;;;;;;;22.80;19.80;;;;;;;;;;5054099;28;20478;-14
2021/03/08 02:58:19;;;;;;;21.07;18.80;;;;;;;;;;5053471;28;20426;-13
2021/03/08 03:00:52;;;;;;;23.03;20.70;;;;;;;;;;5053137;28;20472;-13
2021/03/08 03:03:22;;;;;;;23.30;20.90;;;;;;;;;;5054286;28;20464;-13
2021/03/08 03:05:51;;;;;;;28.23;21.37;;;;;;;;;;5054531;28;20462;-14
2021/03/08 03:08:22;;;;;;;24.70;21.77;;;;;;;;;;5036481;28;20630;-13
2021/03/08 03:10:50;;;;;;;24.30;21.00;;;;;;;;;;5033276;28;20914;-13
2021/03/08 03:13:19;;;;;;;21.50;19.33;;;;;;;;;;5015357;28;20432;-13
2021/03/08 03:15:48;;;;;;;25.30;22.10;;;;;;;;;;5013932;28;20447;-13
2021/03/08 03:18:18;;;;;;;22.73;20.00;;;;;;;;;;5016809;28;20464;-14
2021/03/08 03:20:51;;;;;;;25.20;21.97;;;;;;;;;;5033856;28;20444;-13
2021/03/08 03:23:21;;;;;;;23.30;21.03;;;;;;;;;;5017759;28;20449;-14
2021/03/08 03:25:53;;;;;;;23.97;21.57;;;;;;;;;;5034471;28;20466;-14
2021/03/08 03:28:22;;;;;;;25.15;22.63;;;;;;;;;;5033686;28;20543;-14
2021/03/08 03:30:50;;;;;;;23.47;20.67;;;;;;;;;;5035349;28;20209;-14
2021/03/08 03:33:20;;;;;;;24.07;20.90;;;;;;;;;;5034040;28;20496;-14
2021/03/08 03:35:48;;;;;;;23.50;21.00;;;;;;;;;;5032918;28;20873;-14
2021/03/08 03:38:19;;;;;;;24.17;20.90;;;;;;;;;;5031292;28;20546;-14
2021/03/08 03:40:47;;;;;;;23.07;20.77;;;;;;;;;;5013870;28;20463;-13
2021/03/08 03:43:15;;;;;;;22.07;19.83;;;;;;;;;;5013737;28;20443;-14
2021/03/08 03:45:44;;;;;;;24.50;21.75;;;;;;;;;;5012132;28;20462;-13
2021/03/08 03:48:14;;;;;;;22.38;20.27;;;;;;;;;;5013719;28;20202;-13
2021/03/08 03:50:43;;;;;;;22.70;20.23;;;;;;;;;;5038377;28;20278;-13
2021/03/08 03:53:12;;;;;;;23.37;20.87;;;;;;;;;;5053737;28;20445;-14
2021/03/08 03:55:41;;;;;;;21.05;19.05;;;;;;;;;;5052375;28;21125;-14
2021/03/08 03:58:12;;;;;;;22.00;19.70;;;;;;;;;;5053248;28;20189;-14
2021/03/08 04:00:46;;;;;;;21.97;19.80;;;;;;;;;;5052563;28;20284;-14
2021/03/08 04:03:13;;;;;;;24.92;21.55;;;;;;;;;;5053161;28;20707;-14
2021/03/08 04:05:41;;;;;;;23.77;21.10;;;;;;;;;;5059919;28;20302;-14
2021/03/08 04:08:12;;;;;;;23.37;20.87;;;;;;;;;;5073278;28;20484;-14
2021/03/08 04:10:41;;;;;;;23.90;20.10;;;;;;;;;;5073854;28;21012;-14
2021/03/08 04:13:11;;;;;;;22.45;19.15;;;;;;;;;;5072981;28;20460;-14
2021/03/08 04:15:42;;;;;;;22.83;20.40;;;;;;;;;;5061968;28;20706;-14
2021/03/08 04:18:11;;;;;;;24.40;21.90;;;;;;;;;;5054316;28;20525;-13
2021/03/08 04:20:40;;;;;;;22.80;20.27;;;;;;;;;;5056859;28;20502;-13
2021/03/08 04:23:11;;;;;;;23.08;20.73;;;;;;;;;;5055572;28;20472;-12
2021/03/08 04:25:46;;;;;;;23.47;21.07;;;;;;;;;;5058776;28;20206;-15
2021/03/08 04:28:15;;;;;;;22.00;19.60;;;;;;;;;;5075464;28;20432;-13
2021/03/08 04:30:43;;;;;;;21.63;19.40;;;;;;;;;;5055442;28;20465;-13
2021/03/08 04:33:12;;;;;;;21.30;19.27;;;;;;;;;;5021511;28;20804;-13
2021/03/08 04:35:41;;;;;;;22.73;20.35;;;;;;;;;;5056665;28;20231;-13
2021/03/08 04:38:08;;;;;;;21.50;19.43;;;;;;;;;;5037905;28;20326;-13
2021/03/08 04:40:36;;;;;;;22.87;20.50;;;;;;;;;;5054841;28;20446;-14
2021/03/08 04:43:04;;;;;;;23.23;20.63;;;;;;;;;;5038538;28;20441;-13
2021/03/08 04:45:32;;;;;;;23.45;20.42;;;;;;;;;;5055038;28;20433;-13
2021/03/08 04:48:01;;;;;;;22.90;20.67;;;;;;;;;;5053417;28;20504;-12
2021/03/08 04:50:29;;;;;;;22.83;20.53;;;;;;;;;;5054086;28;21077;-12
2021/03/08 04:52:57;;;;;;;23.20;20.90;;;;;;;;;;5054970;28;20461;-14
2021/03/08 04:55:25;;;;;;;22.80;20.60;;;;;;;;;;5054519;28;20715;-14
2021/03/08 04:57:52;;;;;;;21.20;19.00;;;;;;;;;;5054580;28;20497;-13
2021/03/08 05:00:21;;;;;;;22.75;20.33;;;;;;;;;;5053667;28;20238;-13
2021/03/08 05:02:50;;;;;;;23.47;20.20;;;;;;;;;;5053931;28;20197;-14
2021/03/08 05:05:21;;;;;;;22.50;20.30;;;;;;;;;;5053992;28;20456;-14
2021/03/08 05:07:49;;;;;;;24.38;20.88;;;;;;;;;;5052226;28;20515;-13
2021/03/08 05:10:19;;;;;;;24.77;22.10;;;;;;;;;;5054954;28;20220;-14
2021/03/08 05:12:48;;;;;;;24.05;21.38;;;;;;;;;;5053892;28;20472;-13
2021/03/08 05:15:17;;;;;;;25.13;22.42;;;;;;;;;;5069507;28;20252;-14
2021/03/08 05:17:49;;;;;;;24.05;20.55;;;;;;;;;;5036469;28;20233;-14
2021/03/08 05:20:17;;;;;;;22.53;20.30;;;;;;;;;;5032262;28;20204;-14
2021/03/08 05:22:47;;;;;;;25.92;21.50;;;;;;;;;;5033594;28;20560;-13
2021/03/08 05:25:15;;;;;;;23.20;20.60;;;;;;;;;;5031181;28;20197;-14
2021/03/08 05:27:46;;;;;;;25.30;21.30;;;;;;;;;;5032946;28;20323;-14
2021/03/08 05:30:16;;;;;;;25.75;21.40;;;;;;;;;;5031876;28;20198;-13
2021/03/08 05:32:50;;;;;;;22.15;20.10;;;;;;;;;;5031694;28;20585;-15
2021/03/08 05:35:19;;;;;;;25.38;22.55;;;;;;;;;;5029986;28;20599;-13
2021/03/08 05:37:47;;;;;;;26.65;21.63;;;;;;;;;;5029127;28;20239;-13
2021/03/08 05:40:28;;;;;;;26.40;23.45;;;;;;;;;;5011423;28;20224;-13
2021/03/08 05:43:00;;;;;;;29.60;22.05;;;;;;;;;;5027899;28;20350;-13
2021/03/08 05:45:28;;;;;;;25.67;21.45;;;;;;;;;;5011502;28;20239;-13
2021/03/08 05:48:10;;;;;;;26.70;21.73;;;;;;;;;;5025556;28;20216;-13
2021/03/08 05:50:52;;;;;;;26.20;22.75;;;;;;;;;;5009068;28;20209;-13
2021/03/08 05:53:52;;;;;;;41.08;25.95;;;;;;;;;;5029974;28;20284;-13
2021/03/08 05:56:33;;;;;;;26.15;22.77;;;;;;;;;;5028106;28;20198;-14
2021/03/08 05:59:07;;;;;;;29.85;24.38;;;;;;;;;;5004897;28;20209;-14
2021/03/08 06:01:50;;;;;;;25.75;23.15;;;;;;;;;;5021975;28;20204;-14
2021/03/08 06:04:23;;;;;;;25.27;22.20;;;;;;;;;;5026379;28;20201;-14
2021/03/08 06:07:05;;;;;;;23.37;20.93;;;;;;;;;;5045834;28;20520;-14
2021/03/08 06:09:40;;;;;;;22.77;20.40;;;;;;;;;;5041912;28;20477;-14
2021/03/08 06:12:10;;;;;;;22.53;20.17;;;;;;;;;;5033074;28;20285;-14
2021/03/08 06:14:41;;;;;;;24.37;20.47;;;;;;;;;;5007758;28;20455;-14
2021/03/08 06:17:11;;;;;;;30.00;22.57;;;;;;;;;;5021758;28;20508;-14
2021/03/08 06:19:39;;;;;;;27.17;22.77;;;;;;;;;;5017639;28;20443;-14
2021/03/08 06:22:08;;;;;;;28.77;21.35;;;;;;;;;;5018035;28;20439;-14
2021/03/08 06:24:37;;;;;;;26.33;21.05;;;;;;;;;;5020647;28;20205;-14
2021/03/08 06:27:06;;;;;;;25.25;19.90;;;;;;;;;;5022058;28;20617;-13
2021/03/08 06:29:39;;;;;;;22.60;19.40;;;;;;;;;;5002867;28;20533;-13
2021/03/08 06:32:08;;;;;;;23.33;18.83;;;;;;;;;;5001672;28;20470;-13
2021/03/08 06:34:35;;;;;;;24.77;20.75;;;;;;;;;;5015849;28;20351;-14
2021/03/08 06:37:05;;;;;;;23.27;19.87;;;;;;;;;;5015797;28;20197;-14
2021/03/08 06:39:35;;;;;;;26.75;19.48;;;;;;;;;;4995444;28;20446;-14
2021/03/08 06:42:04;;;;;;;23.40;20.37;;;;;;;;;;5011107;28;20229;-13
2021/03/08 06:44:32;;;;;;;23.50;19.80;;;;;;;;;;5015764;28;20481;-14
2021/03/08 06:47:00;;;;;;;24.10;20.03;;;;;;;;;;5010903;28;20193;-14
2021/03/08 06:49:27;;;;;;;28.77;19.03;;;;;;;;;;5009036;28;20462;-14
2021/03/08 06:52:01;;;;;;;27.30;20.03;;;;;;;;;;5022239;28;20473;-14
2021/03/08 06:54:29;;;;;;;24.13;20.90;;;;;;;;;;5032468;28;20433;-13
2021/03/08 06:56:56;;;;;;;22.57;18.60;;;;;;;;;;5008954;28;20576;-14
2021/03/08 06:59:23;;;;;;;25.53;19.63;;;;;;;;;;5029683;28;20433;-13
2021/03/08 07:01:52;;;;;;;23.50;20.73;;;;;;;;;;4999717;28;20483;-13
2021/03/08 07:04:22;;;;;;;23.60;21.20;;;;;;;;;;4988450;28;20442;-14
2021/03/08 07:07:02;;;;;;;28.50;22.20;;;;;;;;;;4994463;28;20446;-12
2021/03/08 07:09:30;;;;;;;26.70;23.10;;;;;;;;;;5008461;28;20430;-14
2021/03/08 07:12:07;;;;;;;23.90;21.13;;;;;;;;;;5003778;28;20577;-13
2021/03/08 07:14:37;;;;;;;27.20;21.07;;;;;;;;;;4987351;28;20457;-14
2021/03/08 07:17:04;;;;;;;25.30;21.60;;;;;;;;;;4981830;28;20450;-14
2021/03/08 07:19:35;;;;;;;26.00;23.07;;;;;;;;;;5002541;28;21091;-14
2021/03/08 07:22:02;;;;;;;31.27;23.30;;;;;;;;;;5000627;28;20443;-14
2021/03/08 07:24:29;;;;;;;27.70;22.77;;;;;;;;;;4995231;28;20434;-13
2021/03/08 07:26:57;;;;;;;27.80;20.40;;;;;;;;;;4997296;28;21005;-13
2021/03/08 07:29:24;;;;;;;24.47;20.60;;;;;;;;;;4996776;28;20454;-14
2021/03/08 07:31:53;;;;;;;23.00;20.50;;;;;;;;;;4996605;28;20502;-14
2021/03/08 07:34:21;;;;;;;28.30;21.27;;;;;;;;;;4997196;28;20446;-13
2021/03/08 07:36:58;;;;;;;23.90;19.17;;;;;;;;;;4972334;28;20512;-13
2021/03/08 07:39:26;;;;;;;23.87;19.50;;;;;;;;;;4983832;28;20561;-13
2021/03/08 07:41:54;;;;;;;23.13;19.57;;;;;;;;;;5020698;28;20457;-13
2021/03/08 07:44:22;;;;;;;24.07;20.63;;;;;;;;;;4975751;28;20782;-14
2021/03/08 07:46:50;;;;;;;25.27;21.37;;;;;;;;;;4974421;28;20558;-14
2021/03/08 07:49:18;;;;;;;26.70;21.40;;;;;;;;;;4983868;28;20474;-14
2021/03/08 07:52:02;;;;;;;21.33;19.13;;;;;;;;;;5000909;28;20477;-14
2021/03/08 07:54:31;;;;;;;21.77;18.63;;;;;;;;;;5005351;28;20570;-16
2021/03/08 07:56:59;;;;;;;22.23;19.77;;;;;;;;;;5008966;28;20521;-15
2021/03/08 07:59:27;;;;;;;27.73;21.60;;;;;;;;;;5005428;28;20869;-14
2021/03/08 08:01:54;;;;;;;25.87;22.70;;;;;;;;;;4992802;28;20436;-14
2021/03/08 08:04:23;;;;;;;23.30;19.67;;;;;;;;;;4987221;28;20449;-15
2021/03/08 08:06:51;;;;;;;25.00;21.77;;;;;;;;;;5006701;28;20451;-14
2021/03/08 08:09:19;;;;;;;25.90;22.43;;;;;;;;;;5007196;28;20465;-14
2021/03/08 08:11:48;;;;;;;23.53;20.20;;;;;;;;;;5008229;28;20489;-14
2021/03/08 08:14:20;;;;;;;29.70;20.77;;;;;;;;;;5007022;28;20958;-14
2021/03/08 08:16:48;;;;;;;25.00;20.73;;;;;;;;;;5005778;28;20500;-14
2021/03/08 08:19:20;;;;;;;22.13;19.80;;;;;;;;;;5006507;28;21005;-14
2021/03/08 08:21:47;;;;;;;23.57;20.87;;;;;;;;;;5001123;28;20454;-15
2021/03/08 08:24:18;;;;;;;21.90;19.23;;;;;;;;;;5002958;28;20443;-14
2021/03/08 08:26:51;;;;;;;28.43;22.50;;;;;;;;;;5005421;28;20435;-14
2021/03/08 08:29:22;;;;;;;22.43;20.30;;;;;;;;;;5006573;28;20434;-14
2021/03/08 08:32:00;;;;;;;23.47;21.07;;;;;;;;;;5007040;28;20466;-14
2021/03/08 08:34:33;;;;;;;23.77;21.47;;;;;;;;;;5010272;28;20439;-14
2021/03/08 08:37:11;;;;;;;22.60;20.20;;;;;;;;;;5010277;28;20585;-13
2021/03/08 08:39:39;;;;;;;23.57;21.07;;;;;;;;;;5011150;28;20468;-14
2021/03/08 08:42:21;;;;;;;25.57;22.10;;;;;;;;;;5015187;28;20462;-14
2021/03/08 08:44:49;;;;;;;22.53;20.23;;;;;;;;;;5013958;28;20458;-14
2021/03/08 08:47:29;;;;;;;21.57;19.70;;;;;;;;;;5015150;28;20569;-14
2021/03/08 08:49:58;;;;;;;22.30;20.00;;;;;;;;;;5030981;28;20447;-14
2021/03/08 08:52:44;;;;;;;24.87;21.27;;;;;;;;;;5029082;28;20468;-14
2021/03/08 08:55:12;;;;;;;22.07;20.07;;;;;;;;;;5029833;28;20441;-14
2021/03/08 08:58:01;;;;;;;24.10;21.60;;;;;;;;;;5014627;28;20462;-14
2021/03/08 09:00:30;;;;;;;25.80;21.83;;;;;;;;;;5012968;28;20485;-14
2021/03/08 09:03:01;;;;;;;21.87;19.67;;;;;;;;;;5022192;28;20502;-14
2021/03/08 09:05:41;;;;;;;21.57;19.53;;;;;;;;;;5009776;28;20441;-14
2021/03/08 09:08:31;;;;;;;22.27;20.13;;;;;;;;;;5026887;28;20449;-14
2021/03/08 09:10:59;;;;;;;21.60;19.60;;;;;;;;;;5025455;28;20468;-14
2021/03/08 09:13:28;;;;;;;22.03;18.37;;;;;;;;;;4996827;28;20495;-14
2021/03/08 09:15:59;;;;;;;22.40;18.80;;;;;;;;;;4988967;28;20979;-13
2021/03/08 09:18:35;;;;;;;20.33;18.40;;;;;;;;;;4988141;28;20427;-15
2021/03/08 09:21:18;;;;;;;21.57;19.47;;;;;;;;;;4989559;28;20455;-14
2021/03/08 09:23:45;;;;;;;18.97;17.27;;;;;;;;;;4980614;28;20440;-14
2021/03/08 09:26:12;;;;;;;20.03;18.03;;;;;;;;;;4991293;28;20435;-14
2021/03/08 09:28:50;;;;;;;19.80;17.83;;;;;;;;;;4973468;28;20456;-14
2021/03/08 09:31:21;;;;;;;19.40;17.50;;;;;;;;;;4968929;28;20546;-14
2021/03/08 09:33:50;;;;;;;19.47;17.97;;;;;;;;;;4971330;28;20444;-14
2021/03/08 09:36:20;;;;;;;19.33;17.40;;;;;;;;;;4987853;28;20459;-14
2021/03/08 09:38:48;;;;;;;19.90;18.07;;;;;;;;;;4969309;28;20452;-14
2021/03/08 09:41:17;;;;;;;17.90;16.27;;;;;;;;;;4971992;28;20452;-13
2021/03/08 09:43:45;;;;;;;15.97;14.67;;;;;;;;;;4972815;28;20567;-15
2021/03/08 09:46:16;;;;;;;16.20;14.70;;;;;;;;;;4972325;28;20448;-14
2021/03/08 09:48:54;;;;;;;17.20;15.60;;;;;;;;;;4970616;28;20760;-13
2021/03/08 09:51:23;;;;;;;15.37;14.17;;;;;;;;;;4968169;28;20494;-14
2021/03/08 09:53:54;;;;;;;15.00;13.70;;;;;;;;;;4969342;28;20454;-15
2021/03/08 09:56:22;;;;;;;15.43;14.23;;;;;;;;;;4971883;28;20880;-15
2021/03/08 09:59:01;;;;;;;16.10;14.53;;;;;;;;;;4967711;28;20590;-14
2021/03/08 10:01:29;;;;;;;16.23;14.90;;;;;;;;;;4968181;28;20449;-14
2021/03/08 10:03:57;;;;;;;17.30;16.00;;;;;;;;;;4964263;28;20451;-13
2021/03/08 10:06:25;;;;;;;16.70;14.90;;;;;;;;;;4968869;28;20460;-14
2021/03/08 10:08:53;;;;;;;16.10;14.70;;;;;;;;;;5005299;28;20506;-14
2021/03/08 10:11:21;;;;;;;15.43;14.23;;;;;;;;;;5006292;28;20501;-14
2021/03/08 10:13:49;;;;;;;16.47;15.10;;;;;;;;;;5003143;28;20431;-14
2021/03/08 10:16:32;;;;;;;15.70;14.50;;;;;;;;;;5007000;28;20728;-14
2021/03/08 10:22:59;;;;;;;16.50;15.20;;;;;;;;;;4987795;28;20463;-14
2021/03/08 10:25:28;;;;;;;15.90;14.60;;;;;;;;;;4970000;28;21244;-14
2021/03/08 10:27:57;;;;;;;15.67;14.47;;;;;;;;;;4977169;28;20465;-14
2021/03/08 10:30:26;;;;;;;17.10;15.60;;;;;;;;;;5007288;28;21431;-14
2021/03/08 10:32:55;;;;;;;15.87;14.60;;;;;;;;;;5004727;28;20498;-14
2021/03/08 10:35:25;;;;;;;13.27;12.20;;;;;;;;;;5004751;28;20508;-14
2021/03/08 10:37:54;;;;;;;13.47;12.40;;;;;;;;;;5001110;28;20464;-14
2021/03/08 10:40:26;;;;;;;13.73;12.53;;;;;;;;;;5006633;28;20439;-14
2021/03/08 10:42:54;;;;;;;13.47;12.40;;;;;;;;;;5014492;28;20446;-15
2021/03/08 10:45:22;;;;;;;14.07;12.77;;;;;;;;;;5004899;28;20442;-14
2021/03/08 10:48:04;;;;;;;13.40;12.50;;;;;;;;;;5006889;28;20751;-15
2021/03/08 10:50:43;;;;;;;12.93;11.63;;;;;;;;;;5007760;28;20438;-13
2021/03/08 10:53:11;;;;;;;12.37;11.60;;;;;;;;;;5008914;28;20471;-14
2021/03/08 10:55:40;;;;;;;13.10;12.17;;;;;;;;;;4998879;28;20457;-14
2021/03/08 10:58:09;;;;;;;13.27;12.20;;;;;;;;;;5018792;28;21079;-15
2021/03/08 11:00:36;;;;;;;13.63;12.73;;;;;;;;;;5020036;28;20444;-15
2021/03/08 11:03:05;;;;;;;11.93;11.13;;;;;;;;;;5021470;28;20438;-15
2021/03/08 11:05:32;;;;;;;14.33;13.13;;;;;;;;;;5021760;28;20841;-15
2021/03/08 11:08:01;;;;;;;12.77;11.80;;;;;;;;;;5024816;28;20461;-14
2021/03/08 11:10:37;;;;;;;12.27;11.50;;;;;;;;;;5020251;28;20731;-15
2021/03/08 11:13:08;;;;;;;12.63;11.83;;;;;;;;;;5023083;28;20764;-15
2021/03/08 11:15:36;;;;;;;13.23;12.33;;;;;;;;;;4998588;28;20461;-15
2021/03/08 11:18:04;;;;;;;12.60;11.67;;;;;;;;;;5020740;28;20457;-15
2021/03/08 11:20:33;;;;;;;12.33;11.23;;;;;;;;;;5023006;28;20464;-14
2021/03/08 11:23:01;;;;;;;14.00;12.80;;;;;;;;;;5019076;28;20490;-15
2021/03/08 11:25:39;;;;;;;13.37;12.40;;;;;;;;;;5023460;28;20434;-15
2021/03/08 11:28:10;;;;;;;12.23;11.27;;;;;;;;;;4991704;28;20699;-15
2021/03/08 11:30:39;;;;;;;14.20;12.80;;;;;;;;;;5012071;28;20442;-16
2021/03/08 11:33:07;;;;;;;12.47;11.57;;;;;;;;;;5021375;28;20473;-16
2021/03/08 11:35:36;;;;;;;13.83;12.73;;;;;;;;;;5021433;28;20461;-15
2021/03/08 11:38:04;;;;;;;13.27;12.30;;;;;;;;;;5023730;28;20469;-14
2021/03/08 11:40:32;;;;;;;16.17;14.63;;;;;;;;;;5043196;28;20480;-14
2021/03/08 11:43:00;;;;;;;13.77;12.67;;;;;;;;;;5041443;28;20460;-14
2021/03/08 11:45:29;;;;;;;15.60;14.30;;;;;;;;;;5035837;28;20453;-14
2021/03/08 11:47:58;;;;;;;14.73;13.53;;;;;;;;;;5029870;28;20521;-14
2021/03/08 11:50:27;;;;;;;13.57;12.77;;;;;;;;;;5023556;28;20445;-14
2021/03/08 11:52:55;;;;;;;13.57;12.53;;;;;;;;;;5022226;28;20608;-15
2021/03/08 11:55:24;;;;;;;14.43;13.33;;;;;;;;;;5026290;28;20537;-15
2021/03/08 11:57:57;;;;;;;13.57;12.67;;;;;;;;;;5025195;28;20440;-15
2021/03/08 12:00:28;;;;;;;13.93;12.73;;;;;;;;;;5021986;28;20866;-14
2021/03/08 12:02:56;;;;;;;15.90;14.60;;;;;;;;;;5022464;28;20777;-14
2021/03/08 12:05:23;;;;;;;15.87;14.47;;;;;;;;;;5022862;28;20441;-14
2021/03/08 12:07:54;;;;;;;15.40;14.10;;;;;;;;;;5021725;28;20503;-14
2021/03/08 12:10:22;;;;;;;15.40;13.87;;;;;;;;;;5010267;28;20538;-14
2021/03/08 12:12:49;;;;;;;16.50;15.17;;;;;;;;;;5023571;28;20527;-15
2021/03/08 12:15:17;;;;;;;15.10;13.90;;;;;;;;;;5002537;28;20682;-15
2021/03/08 12:17:44;;;;;;;14.83;13.63;;;;;;;;;;5001606;28;20892;-15
2021/03/08 12:20:13;;;;;;;15.20;14.10;;;;;;;;;;5001902;28;20541;-14
2021/03/08 12:22:42;;;;;;;15.67;14.53;;;;;;;;;;5002794;28;20533;-14
2021/03/08 12:25:10;;;;;;;14.67;13.70;;;;;;;;;;5006397;28;20442;-14
2021/03/08 12:27:37;;;;;;;14.53;13.23;;;;;;;;;;5011828;28;20442;-14
2021/03/08 12:30:05;;;;;;;13.90;12.60;;;;;;;;;;5009968;28;20908;-15
2021/03/08 12:32:32;;;;;;;14.70;13.30;;;;;;;;;;5011702;28;20873;-15
2021/03/08 12:35:00;;;;;;;14.83;13.73;;;;;;;;;;5004387;28;21328;-14
2021/03/08 12:37:28;;;;;;;15.13;14.13;;;;;;;;;;4998352;28;20439;-15
2021/03/08 12:39:56;;;;;;;15.27;14.27;;;;;;;;;;4983852;28;20453;-15
2021/03/08 12:42:23;;;;;;;15.03;13.90;;;;;;;;;;5002969;28;20438;-15
2021/03/08 12:44:50;;;;;;;14.90;13.80;;;;;;;;;;4982763;28;21204;-15
2021/03/08 12:47:17;;;;;;;15.73;14.60;;;;;;;;;;5003271;28;20513;-15
2021/03/08 12:49:45;;;;;;;14.57;13.57;;;;;;;;;;5008773;28;20442;-15
2021/03/08 12:52:13;;;;;;;14.63;13.43;;;;;;;;;;5007185;28;20566;-15
2021/03/08 12:54:42;;;;;;;14.90;13.70;;;;;;;;;;5005047;28;20462;-15
2021/03/08 12:57:09;;;;;;;13.70;12.80;;;;;;;;;;5006673;28;20438;-15
2021/03/08 12:59:36;;;;;;;15.63;14.53;;;;;;;;;;5006567;28;20733;-15
2021/03/08 13:02:03;;;;;;;14.43;13.27;;;;;;;;;;5006958;28;20461;-15
2021/03/08 13:04:32;;;;;;;13.43;12.33;;;;;;;;;;5011031;28;20480;-15
2021/03/08 13:06:59;;;;;;;13.70;11.67;;;;;;;;;;5013105;28;20439;-15
2021/03/08 13:09:26;;;;;;;12.00;11.10;;;;;;;;;;5009023;28;20500;-15
2021/03/08 13:11:55;;;;;;;12.80;11.90;;;;;;;;;;5001764;28;20756;-15
2021/03/08 13:14:22;;;;;;;13.70;12.57;;;;;;;;;;5002366;28;20967;-15
2021/03/08 13:16:50;;;;;;;12.93;11.93;;;;;;;;;;4987288;28;21046;-14
2021/03/08 13:19:18;;;;;;;11.40;10.67;;;;;;;;;;5005451;28;20565;-16
2021/03/08 13:21:47;;;;;;;12.00;11.20;;;;;;;;;;4987365;28;20587;-16
2021/03/08 13:24:15;;;;;;;11.40;10.63;;;;;;;;;;4987856;28;20430;-17
2021/03/08 13:26:43;;;;;;;11.23;10.53;;;;;;;;;;4979875;28;20932;-16
2021/03/08 13:29:11;;;;;;;12.17;11.07;;;;;;;;;;4988380;28;20767;-15
2021/03/08 13:31:38;;;;;;;10.30;9.80;;;;;;;;;;5005678;28;20885;-16
2021/03/08 13:34:06;;;;;;;9.63;9.03;;;;;;;;;;4988658;28;20469;-16
2021/03/08 13:36:33;;;;;;;10.40;9.70;;;;;;;;;;5009790;28;20442;-15
2021/03/08 13:39:00;;;;;;;10.00;9.30;;;;;;;;;;5011175;28;20435;-15
2021/03/08 13:41:28;;;;;;;11.53;10.93;;;;;;;;;;5013181;28;20438;-16
2021/03/08 13:43:55;;;;;;;10.50;9.90;;;;;;;;;;5008814;28;20447;-15
2021/03/08 13:46:23;;;;;;;11.57;10.87;;;;;;;;;;5007749;28;21048;-15
2021/03/08 13:48:50;;;;;;;10.93;10.23;;;;;;;;;;5007857;28;20544;-14
2021/03/08 13:51:17;;;;;;;10.30;9.70;;;;;;;;;;5009710;28;20450;-15
2021/03/08 13:53:45;;;;;;;11.83;10.70;;;;;;;;;;5009496;28;21171;-15
2021/03/08 13:56:12;;;;;;;11.17;10.50;;;;;;;;;;5008721;28;21248;-16
2021/03/08 13:58:40;;;;;;;12.03;11.23;;;;;;;;;;5008056;28;20450;-16
2021/03/08 14:01:14;;;;;;;10.20;9.50;;;;;;;;;;5007724;28;20434;-15
2021/03/08 14:03:44;;;;;;;11.80;10.83;;;;;;;;;;5027679;28;20547;-16
2021/03/08 14:06:11;;;;;;;11.23;10.47;;;;;;;;;;5031036;28;20460;-16
2021/03/08 14:08:41;;;;;;;11.63;10.83;;;;;;;;;;5030426;28;20457;-16
2021/03/08 14:11:09;;;;;;;11.10;10.40;;;;;;;;;;5012804;28;20457;-15
2021/03/08 14:13:36;;;;;;;10.10;9.50;;;;;;;;;;4997480;28;20570;-15
2021/03/08 14:16:04;;;;;;;11.33;10.60;;;;;;;;;;5033057;28;20452;-14
2021/03/08 14:18:31;;;;;;;10.77;9.90;;;;;;;;;;5033251;28;20554;-16
2021/03/08 14:20:59;;;;;;;10.73;10.13;;;;;;;;;;5032010;28;20438;-15
2021/03/08 14:23:26;;;;;;;11.00;10.10;;;;;;;;;;5028999;28;20501;-15
2021/03/08 14:25:53;;;;;;;10.57;9.87;;;;;;;;;;5014795;28;20477;-14
2021/03/08 14:28:21;;;;;;;11.17;10.57;;;;;;;;;;5029722;28;20449;-14
2021/03/08 14:30:49;;;;;;;11.90;11.10;;;;;;;;;;5013052;28;20460;-15
2021/03/08 14:33:17;;;;;;;12.40;11.40;;;;;;;;;;5023702;28;21057;-13
2021/03/08 14:35:44;;;;;;;11.77;11.10;;;;;;;;;;5022032;28;20545;-14
2021/03/08 14:38:12;;;;;;;12.17;11.27;;;;;;;;;;5026797;28;20446;-13